sensor_id;sensor_type;location;lat;lon;timestamp;P1;durP1;ratioP1;P2;durP2;ratioP2
24153;SDS011;12312;53.362;-1.518;2023-05-23T00:03:41;10.55;;;5.72;;
24153;SDS011;12312;53.362;-1.518;2023-05-23T00:07:25;10.90;;;5.15;;
24153;SDS011;12312;53.362;-1.518;2023-05-23T00:11:08;11.80;;;5.40;;
24153;SDS011;12312;53.362;-1.518;2023-05-23T00:14:51;11.10;;;5.75;;
24153;SDS011;12312;53.362;-1.518;2023-05-23T00:18:35;10.68;;;5.80;;
24153;SDS011;12312;53.362;-1.518;2023-05-23T00:22:18;11.65;;;5.75;;
24153;SDS011;12312;53.362;-1.518;2023-05-23T00:26:03;12.68;;;6.30;;
24153;SDS011;12312;53.362;-1.518;2023-05-23T00:29:46;10.77;;;6.38;;
24153;SDS011;12312;53.362;-1.518;2023-05-23T00:33:29;11.02;;;6.00;;
24153;SDS011;12312;53.362;-1.518;2023-05-23T00:37:12;13.50;;;5.95;;
24153;SDS011;12312;53.362;-1.518;2023-05-23T00:40:55;11.48;;;5.82;;
24153;SDS011;12312;53.362;-1.518;2023-05-23T00:44:39;10.15;;;5.93;;
24153;SDS011;12312;53.362;-1.518;2023-05-23T00:48:21;11.15;;;5.32;;
24153;SDS011;12312;53.362;-1.518;2023-05-23T00:52:04;9.85;;;5.13;;
24153;SDS011;12312;53.362;-1.518;2023-05-23T00:55:47;9.68;;;4.57;;
24153;SDS011;12312;53.362;-1.518;2023-05-23T00:59:31;10.85;;;4.57;;
24153;SDS011;12312;53.362;-1.518;2023-05-23T01:03:16;11.32;;;4.72;;
24153;SDS011;12312;53.362;-1.518;2023-05-23T01:07:00;9.85;;;4.05;;
24153;SDS011;12312;53.362;-1.518;2023-05-23T01:10:46;11.93;;;4.72;;
24153;SDS011;12312;53.362;-1.518;2023-05-23T01:14:37;12.73;;;5.03;;
24153;SDS011;12312;53.362;-1.518;2023-05-23T01:18:31;14.13;;;5.38;;
24153;SDS011;12312;53.362;-1.518;2023-05-23T01:22:32;9.80;;;4.30;;
24153;SDS011;12312;53.362;-1.518;2023-05-23T01:26:32;7.65;;;4.40;;
24153;SDS011;12312;53.362;-1.518;2023-05-23T01:30:25;9.55;;;4.18;;
24153;SDS011;12312;53.362;-1.518;2023-05-23T01:34:12;9.77;;;4.55;;
24153;SDS011;12312;53.362;-1.518;2023-05-23T01:37:56;12.82;;;4.70;;
24153;SDS011;12312;53.362;-1.518;2023-05-23T01:41:39;10.23;;;4.88;;
24153;SDS011;12312;53.362;-1.518;2023-05-23T01:45:25;11.40;;;4.53;;
24153;SDS011;12312;53.362;-1.518;2023-05-23T01:49:08;10.07;;;4.47;;
24153;SDS011;12312;53.362;-1.518;2023-05-23T01:52:59;7.22;;;4.38;;
24153;SDS011;12312;53.362;-1.518;2023-05-23T01:56:42;11.35;;;4.40;;
24153;SDS011;12312;53.362;-1.518;2023-05-23T02:00:26;8.77;;;4.28;;
24153;SDS011;12312;53.362;-1.518;2023-05-23T02:04:09;6.63;;;3.70;;
24153;SDS011;12312;53.362;-1.518;2023-05-23T02:07:54;7.50;;;3.67;;
24153;SDS011;12312;53.362;-1.518;2023-05-23T02:11:37;6.93;;;4.18;;
24153;SDS011;12312;53.362;-1.518;2023-05-23T02:15:20;11.27;;;4.03;;
24153;SDS011;12312;53.362;-1.518;2023-05-23T02:19:03;8.85;;;3.92;;
24153;SDS011;12312;53.362;-1.518;2023-05-23T02:22:45;8.73;;;4.20;;
24153;SDS011;12312;53.362;-1.518;2023-05-23T02:26:28;9.60;;;3.80;;
24153;SDS011;12312;53.362;-1.518;2023-05-23T02:30:11;6.97;;;3.90;;
24153;SDS011;12312;53.362;-1.518;2023-05-23T02:33:54;10.57;;;3.78;;
24153;SDS011;12312;53.362;-1.518;2023-05-23T02:37:37;10.98;;;3.67;;
24153;SDS011;12312;53.362;-1.518;2023-05-23T02:41:20;10.73;;;3.85;;
24153;SDS011;12312;53.362;-1.518;2023-05-23T02:45:02;8.30;;;3.55;;
24153;SDS011;12312;53.362;-1.518;2023-05-23T02:48:45;6.90;;;3.28;;
24153;SDS011;12312;53.362;-1.518;2023-05-23T02:52:28;7.22;;;3.90;;
24153;SDS011;12312;53.362;-1.518;2023-05-23T02:56:11;11.23;;;3.90;;
24153;SDS011;12312;53.362;-1.518;2023-05-23T02:59:54;8.13;;;3.30;;
24153;SDS011;12312;53.362;-1.518;2023-05-23T03:03:37;9.43;;;3.50;;
24153;SDS011;12312;53.362;-1.518;2023-05-23T03:07:20;6.57;;;3.72;;
24153;SDS011;12312;53.362;-1.518;2023-05-23T03:11:02;6.93;;;3.58;;
24153;SDS011;12312;53.362;-1.518;2023-05-23T03:14:45;8.88;;;3.83;;
24153;SDS011;12312;53.362;-1.518;2023-05-23T03:18:29;6.60;;;3.80;;
24153;SDS011;12312;53.362;-1.518;2023-05-23T03:22:11;10.23;;;3.40;;
24153;SDS011;12312;53.362;-1.518;2023-05-23T03:25:54;9.20;;;3.63;;
24153;SDS011;12312;53.362;-1.518;2023-05-23T03:29:37;6.30;;;2.83;;
24153;SDS011;12312;53.362;-1.518;2023-05-23T03:33:20;7.30;;;3.67;;
24153;SDS011;12312;53.362;-1.518;2023-05-23T03:37:03;8.02;;;3.20;;
24153;SDS011;12312;53.362;-1.518;2023-05-23T03:40:46;7.78;;;3.10;;
24153;SDS011;12312;53.362;-1.518;2023-05-23T03:44:28;10.23;;;3.33;;
24153;SDS011;12312;53.362;-1.518;2023-05-23T03:48:11;8.77;;;3.05;;
24153;SDS011;12312;53.362;-1.518;2023-05-23T03:51:54;10.25;;;3.65;;
24153;SDS011;12312;53.362;-1.518;2023-05-23T03:55:38;3.80;;;2.63;;
24153;SDS011;12312;53.362;-1.518;2023-05-23T03:59:20;6.68;;;2.90;;
24153;SDS011;12312;53.362;-1.518;2023-05-23T04:03:03;10.50;;;3.47;;
24153;SDS011;12312;53.362;-1.518;2023-05-23T04:06:47;9.60;;;3.08;;
24153;SDS011;12312;53.362;-1.518;2023-05-23T04:10:30;7.82;;;2.95;;
24153;SDS011;12312;53.362;-1.518;2023-05-23T04:14:13;10.10;;;3.10;;
24153;SDS011;12312;53.362;-1.518;2023-05-23T04:17:55;6.53;;;2.90;;
24153;SDS011;12312;53.362;-1.518;2023-05-23T04:21:38;6.65;;;3.13;;
24153;SDS011;12312;53.362;-1.518;2023-05-23T04:25:21;9.40;;;3.95;;
24153;SDS011;12312;53.362;-1.518;2023-05-23T04:29:04;6.70;;;3.63;;
24153;SDS011;12312;53.362;-1.518;2023-05-23T04:32:47;6.38;;;3.05;;
24153;SDS011;12312;53.362;-1.518;2023-05-23T04:36:30;11.55;;;3.63;;
24153;SDS011;12312;53.362;-1.518;2023-05-23T04:40:15;6.05;;;3.00;;
24153;SDS011;12312;53.362;-1.518;2023-05-23T04:43:58;6.30;;;2.80;;
24153;SDS011;12312;53.362;-1.518;2023-05-23T04:47:41;11.15;;;3.20;;
24153;SDS011;12312;53.362;-1.518;2023-05-23T04:51:25;5.95;;;3.22;;
24153;SDS011;12312;53.362;-1.518;2023-05-23T04:55:08;7.78;;;3.17;;
24153;SDS011;12312;53.362;-1.518;2023-05-23T04:58:51;6.85;;;3.47;;
24153;SDS011;12312;53.362;-1.518;2023-05-23T05:02:33;11.75;;;3.50;;
24153;SDS011;12312;53.362;-1.518;2023-05-23T05:06:17;12.15;;;3.88;;
24153;SDS011;12312;53.362;-1.518;2023-05-23T05:10:00;11.25;;;3.65;;
24153;SDS011;12312;53.362;-1.518;2023-05-23T05:13:43;9.98;;;3.45;;
24153;SDS011;12312;53.362;-1.518;2023-05-23T05:17:26;7.78;;;3.47;;
24153;SDS011;12312;53.362;-1.518;2023-05-23T05:21:09;9.00;;;3.53;;
24153;SDS011;12312;53.362;-1.518;2023-05-23T05:24:52;9.32;;;3.33;;
24153;SDS011;12312;53.362;-1.518;2023-05-23T05:28:35;6.60;;;3.25;;
24153;SDS011;12312;53.362;-1.518;2023-05-23T05:32:18;10.07;;;4.25;;
24153;SDS011;12312;53.362;-1.518;2023-05-23T05:36:02;9.75;;;3.88;;
24153;SDS011;12312;53.362;-1.518;2023-05-23T05:39:44;9.18;;;3.40;;
24153;SDS011;12312;53.362;-1.518;2023-05-23T05:43:27;8.20;;;3.63;;
24153;SDS011;12312;53.362;-1.518;2023-05-23T05:47:10;8.05;;;2.72;;
24153;SDS011;12312;53.362;-1.518;2023-05-23T05:50:54;7.10;;;3.22;;
24153;SDS011;12312;53.362;-1.518;2023-05-23T05:54:37;7.93;;;2.70;;
24153;SDS011;12312;53.362;-1.518;2023-05-23T05:58:20;6.25;;;3.35;;
24153;SDS011;12312;53.362;-1.518;2023-05-23T06:02:03;6.88;;;3.00;;
24153;SDS011;12312;53.362;-1.518;2023-05-23T06:05:46;6.53;;;2.67;;
24153;SDS011;12312;53.362;-1.518;2023-05-23T06:09:29;8.50;;;3.17;;
24153;SDS011;12312;53.362;-1.518;2023-05-23T06:13:13;6.95;;;3.10;;
24153;SDS011;12312;53.362;-1.518;2023-05-23T06:16:55;7.88;;;2.90;;
24153;SDS011;12312;53.362;-1.518;2023-05-23T06:20:38;9.90;;;3.08;;
24153;SDS011;12312;53.362;-1.518;2023-05-23T06:24:21;4.95;;;2.50;;
24153;SDS011;12312;53.362;-1.518;2023-05-23T06:28:04;6.35;;;2.67;;
24153;SDS011;12312;53.362;-1.518;2023-05-23T06:31:47;7.13;;;2.95;;
24153;SDS011;12312;53.362;-1.518;2023-05-23T06:35:30;10.00;;;3.15;;
24153;SDS011;12312;53.362;-1.518;2023-05-23T06:39:14;8.05;;;2.83;;
24153;SDS011;12312;53.362;-1.518;2023-05-23T06:42:59;7.55;;;2.88;;
24153;SDS011;12312;53.362;-1.518;2023-05-23T06:46:43;5.82;;;2.60;;
24153;SDS011;12312;53.362;-1.518;2023-05-23T06:50:28;7.28;;;2.88;;
24153;SDS011;12312;53.362;-1.518;2023-05-23T06:54:10;8.02;;;2.53;;
24153;SDS011;12312;53.362;-1.518;2023-05-23T06:57:57;6.90;;;2.55;;
24153;SDS011;12312;53.362;-1.518;2023-05-23T07:01:39;6.88;;;2.50;;
24153;SDS011;12312;53.362;-1.518;2023-05-23T07:05:22;6.60;;;2.50;;
24153;SDS011;12312;53.362;-1.518;2023-05-23T07:09:05;8.75;;;2.97;;
24153;SDS011;12312;53.362;-1.518;2023-05-23T07:12:48;11.95;;;3.10;;
24153;SDS011;12312;53.362;-1.518;2023-05-23T07:16:31;8.60;;;2.60;;
24153;SDS011;12312;53.362;-1.518;2023-05-23T07:20:14;7.40;;;3.20;;
24153;SDS011;12312;53.362;-1.518;2023-05-23T07:23:57;9.57;;;3.00;;
24153;SDS011;12312;53.362;-1.518;2023-05-23T07:27:39;7.28;;;2.78;;
24153;SDS011;12312;53.362;-1.518;2023-05-23T07:31:23;7.30;;;2.50;;
24153;SDS011;12312;53.362;-1.518;2023-05-23T07:35:07;10.95;;;2.95;;
24153;SDS011;12312;53.362;-1.518;2023-05-23T07:38:49;13.23;;;3.03;;
24153;SDS011;12312;53.362;-1.518;2023-05-23T07:42:32;9.73;;;2.72;;
24153;SDS011;12312;53.362;-1.518;2023-05-23T07:46:15;8.05;;;2.63;;
24153;SDS011;12312;53.362;-1.518;2023-05-23T07:49:58;7.80;;;2.65;;
24153;SDS011;12312;53.362;-1.518;2023-05-23T07:53:41;13.02;;;3.13;;
24153;SDS011;12312;53.362;-1.518;2023-05-23T07:57:23;7.68;;;2.80;;
24153;SDS011;12312;53.362;-1.518;2023-05-23T08:01:06;7.38;;;2.85;;
24153;SDS011;12312;53.362;-1.518;2023-05-23T08:04:49;7.93;;;2.58;;
24153;SDS011;12312;53.362;-1.518;2023-05-23T08:08:32;7.78;;;3.10;;
24153;SDS011;12312;53.362;-1.518;2023-05-23T08:12:15;6.75;;;2.97;;
24153;SDS011;12312;53.362;-1.518;2023-05-23T08:15:59;10.13;;;2.90;;
24153;SDS011;12312;53.362;-1.518;2023-05-23T08:19:41;9.27;;;2.78;;
24153;SDS011;12312;53.362;-1.518;2023-05-23T08:23:24;9.43;;;2.78;;
24153;SDS011;12312;53.362;-1.518;2023-05-23T08:27:06;8.23;;;3.00;;
24153;SDS011;12312;53.362;-1.518;2023-05-23T08:30:48;8.60;;;2.38;;
24153;SDS011;12312;53.362;-1.518;2023-05-23T08:34:31;9.35;;;2.90;;
24153;SDS011;12312;53.362;-1.518;2023-05-23T08:38:17;8.80;;;2.78;;
24153;SDS011;12312;53.362;-1.518;2023-05-23T08:42:00;6.63;;;2.60;;
24153;SDS011;12312;53.362;-1.518;2023-05-23T08:45:44;7.95;;;2.80;;
24153;SDS011;12312;53.362;-1.518;2023-05-23T08:49:29;8.00;;;2.67;;
24153;SDS011;12312;53.362;-1.518;2023-05-23T08:53:16;6.90;;;2.70;;
24153;SDS011;12312;53.362;-1.518;2023-05-23T08:57:00;8.30;;;2.60;;
24153;SDS011;12312;53.362;-1.518;2023-05-23T09:00:43;8.88;;;3.05;;
24153;SDS011;12312;53.362;-1.518;2023-05-23T09:04:26;7.32;;;3.10;;
24153;SDS011;12312;53.362;-1.518;2023-05-23T09:08:09;7.32;;;2.35;;
24153;SDS011;12312;53.362;-1.518;2023-05-23T09:11:53;6.93;;;2.20;;
24153;SDS011;12312;53.362;-1.518;2023-05-23T09:15:35;8.70;;;2.70;;
24153;SDS011;12312;53.362;-1.518;2023-05-23T09:19:18;6.80;;;2.58;;
24153;SDS011;12312;53.362;-1.518;2023-05-23T09:23:01;6.03;;;2.50;;
24153;SDS011;12312;53.362;-1.518;2023-05-23T09:26:48;6.15;;;2.40;;
24153;SDS011;12312;53.362;-1.518;2023-05-23T09:30:30;8.32;;;2.80;;
24153;SDS011;12312;53.362;-1.518;2023-05-23T09:34:15;8.93;;;2.40;;
24153;SDS011;12312;53.362;-1.518;2023-05-23T09:37:58;7.40;;;2.33;;
24153;SDS011;12312;53.362;-1.518;2023-05-23T09:41:47;8.65;;;2.53;;
24153;SDS011;12312;53.362;-1.518;2023-05-23T09:45:33;14.18;;;2.78;;
24153;SDS011;12312;53.362;-1.518;2023-05-23T09:49:17;10.13;;;2.67;;
24153;SDS011;12312;53.362;-1.518;2023-05-23T09:53:00;8.35;;;2.28;;
24153;SDS011;12312;53.362;-1.518;2023-05-23T09:56:43;9.20;;;2.60;;
24153;SDS011;12312;53.362;-1.518;2023-05-23T10:00:26;7.55;;;2.38;;
24153;SDS011;12312;53.362;-1.518;2023-05-23T10:04:10;6.55;;;2.13;;
24153;SDS011;12312;53.362;-1.518;2023-05-23T10:08:01;7.78;;;2.90;;
24153;SDS011;12312;53.362;-1.518;2023-05-23T10:15:48;7.88;;;2.78;;
24153;SDS011;12312;53.362;-1.518;2023-05-23T10:19:55;6.68;;;2.60;;
24153;SDS011;12312;53.362;-1.518;2023-05-23T10:23:47;10.65;;;3.08;;
24153;SDS011;12312;53.362;-1.518;2023-05-23T10:27:31;6.50;;;2.95;;
24153;SDS011;12312;53.362;-1.518;2023-05-23T10:31:15;7.43;;;2.95;;
24153;SDS011;12312;53.362;-1.518;2023-05-23T10:35:17;7.03;;;2.47;;
24153;SDS011;12312;53.362;-1.518;2023-05-23T10:39:13;9.00;;;3.53;;
24153;SDS011;12312;53.362;-1.518;2023-05-23T10:47:24;7.53;;;2.85;;
24153;SDS011;12312;53.362;-1.518;2023-05-23T10:51:24;11.32;;;3.30;;
24153;SDS011;12312;53.362;-1.518;2023-05-23T10:55:14;9.05;;;3.63;;
24153;SDS011;12312;53.362;-1.518;2023-05-23T10:59:07;13.57;;;4.45;;
24153;SDS011;12312;53.362;-1.518;2023-05-23T11:02:58;8.68;;;3.97;;
24153;SDS011;12312;53.362;-1.518;2023-05-23T11:06:47;12.07;;;4.85;;
24153;SDS011;12312;53.362;-1.518;2023-05-23T11:10:58;8.80;;;4.35;;
24153;SDS011;12312;53.362;-1.518;2023-05-23T11:18:28;9.23;;;4.13;;
24153;SDS011;12312;53.362;-1.518;2023-05-23T11:22:12;10.82;;;4.45;;
24153;SDS011;12312;53.362;-1.518;2023-05-23T11:25:55;11.30;;;5.32;;
24153;SDS011;12312;53.362;-1.518;2023-05-23T11:29:42;9.98;;;5.95;;
24153;SDS011;12312;53.362;-1.518;2023-05-23T11:33:25;11.73;;;5.93;;
24153;SDS011;12312;53.362;-1.518;2023-05-23T11:37:11;14.43;;;6.28;;
24153;SDS011;12312;53.362;-1.518;2023-05-23T11:40:54;11.23;;;5.55;;
24153;SDS011;12312;53.362;-1.518;2023-05-23T11:44:49;14.63;;;5.97;;
24153;SDS011;12312;53.362;-1.518;2023-05-23T11:48:32;14.18;;;5.78;;
24153;SDS011;12312;53.362;-1.518;2023-05-23T11:52:16;12.77;;;5.65;;
24153;SDS011;12312;53.362;-1.518;2023-05-23T11:56:04;13.23;;;5.50;;
24153;SDS011;12312;53.362;-1.518;2023-05-23T11:59:47;10.30;;;5.20;;
24153;SDS011;12312;53.362;-1.518;2023-05-23T12:03:30;11.07;;;5.93;;
24153;SDS011;12312;53.362;-1.518;2023-05-23T12:07:13;10.60;;;5.40;;
24153;SDS011;12312;53.362;-1.518;2023-05-23T12:10:59;9.77;;;5.38;;
24153;SDS011;12312;53.362;-1.518;2023-05-23T12:14:42;9.55;;;4.68;;
24153;SDS011;12312;53.362;-1.518;2023-05-23T12:18:28;12.25;;;5.65;;
24153;SDS011;12312;53.362;-1.518;2023-05-23T12:22:11;12.50;;;5.43;;
24153;SDS011;12312;53.362;-1.518;2023-05-23T12:26:02;8.23;;;4.38;;
24153;SDS011;12312;53.362;-1.518;2023-05-23T12:29:49;11.65;;;6.10;;
24153;SDS011;12312;53.362;-1.518;2023-05-23T12:33:36;8.70;;;5.18;;
24153;SDS011;12312;53.362;-1.518;2023-05-23T12:37:23;7.93;;;4.30;;
24153;SDS011;12312;53.362;-1.518;2023-05-23T12:41:06;9.35;;;5.15;;
24153;SDS011;12312;53.362;-1.518;2023-05-23T12:44:50;11.38;;;5.22;;
24153;SDS011;12312;53.362;-1.518;2023-05-23T12:48:33;7.57;;;4.93;;
24153;SDS011;12312;53.362;-1.518;2023-05-23T12:52:16;8.38;;;4.82;;
24153;SDS011;12312;53.362;-1.518;2023-05-23T12:55:58;11.25;;;4.65;;
24153;SDS011;12312;53.362;-1.518;2023-05-23T12:59:40;11.80;;;5.40;;
24153;SDS011;12312;53.362;-1.518;2023-05-23T13:03:23;11.40;;;4.80;;
24153;SDS011;12312;53.362;-1.518;2023-05-23T13:07:06;7.65;;;4.35;;
24153;SDS011;12312;53.362;-1.518;2023-05-23T13:10:49;8.10;;;4.70;;
24153;SDS011;12312;53.362;-1.518;2023-05-23T13:14:31;9.35;;;4.60;;
24153;SDS011;12312;53.362;-1.518;2023-05-23T13:18:14;10.15;;;4.78;;
24153;SDS011;12312;53.362;-1.518;2023-05-23T13:21:57;15.30;;;5.00;;
24153;SDS011;12312;53.362;-1.518;2023-05-23T13:25:40;12.30;;;5.15;;
24153;SDS011;12312;53.362;-1.518;2023-05-23T13:29:22;10.43;;;4.50;;
24153;SDS011;12312;53.362;-1.518;2023-05-23T13:33:06;12.10;;;5.15;;
24153;SDS011;12312;53.362;-1.518;2023-05-23T13:36:49;8.27;;;4.72;;
24153;SDS011;12312;53.362;-1.518;2023-05-23T13:40:32;10.73;;;4.72;;
24153;SDS011;12312;53.362;-1.518;2023-05-23T13:44:15;11.57;;;5.30;;
24153;SDS011;12312;53.362;-1.518;2023-05-23T13:47:58;12.88;;;6.00;;
24153;SDS011;12312;53.362;-1.518;2023-05-23T13:51:41;12.43;;;6.18;;
24153;SDS011;12312;53.362;-1.518;2023-05-23T13:55:24;11.10;;;6.38;;
24153;SDS011;12312;53.362;-1.518;2023-05-23T13:59:07;13.30;;;6.70;;
24153;SDS011;12312;53.362;-1.518;2023-05-23T14:02:51;15.80;;;7.75;;
24153;SDS011;12312;53.362;-1.518;2023-05-23T14:06:34;17.70;;;8.70;;
24153;SDS011;12312;53.362;-1.518;2023-05-23T14:10:16;14.85;;;8.65;;
24153;SDS011;12312;53.362;-1.518;2023-05-23T14:13:59;18.17;;;8.80;;
24153;SDS011;12312;53.362;-1.518;2023-05-23T14:17:41;15.65;;;7.60;;
24153;SDS011;12312;53.362;-1.518;2023-05-23T14:21:23;16.08;;;7.30;;
24153;SDS011;12312;53.362;-1.518;2023-05-23T14:25:06;14.20;;;6.40;;
24153;SDS011;12312;53.362;-1.518;2023-05-23T14:28:50;13.45;;;6.53;;
24153;SDS011;12312;53.362;-1.518;2023-05-23T14:32:32;11.35;;;6.60;;
24153;SDS011;12312;53.362;-1.518;2023-05-23T14:36:15;12.55;;;5.80;;
24153;SDS011;12312;53.362;-1.518;2023-05-23T14:39:58;13.40;;;6.55;;
24153;SDS011;12312;53.362;-1.518;2023-05-23T14:43:42;14.07;;;6.05;;
24153;SDS011;12312;53.362;-1.518;2023-05-23T14:47:25;13.75;;;6.13;;
24153;SDS011;12312;53.362;-1.518;2023-05-23T14:51:08;13.00;;;6.07;;
24153;SDS011;12312;53.362;-1.518;2023-05-23T14:54:51;13.93;;;6.28;;
24153;SDS011;12312;53.362;-1.518;2023-05-23T14:58:34;19.65;;;5.97;;
24153;SDS011;12312;53.362;-1.518;2023-05-23T15:02:17;17.00;;;6.55;;
24153;SDS011;12312;53.362;-1.518;2023-05-23T15:06:00;13.63;;;5.38;;
24153;SDS011;12312;53.362;-1.518;2023-05-23T15:09:43;12.88;;;5.60;;
24153;SDS011;12312;53.362;-1.518;2023-05-23T15:13:27;15.23;;;5.53;;
24153;SDS011;12312;53.362;-1.518;2023-05-23T15:17:12;11.25;;;4.65;;
24153;SDS011;12312;53.362;-1.518;2023-05-23T15:20:56;9.20;;;4.28;;
24153;SDS011;12312;53.362;-1.518;2023-05-23T15:24:38;13.70;;;4.30;;
24153;SDS011;12312;53.362;-1.518;2023-05-23T15:28:24;14.18;;;4.13;;
24153;SDS011;12312;53.362;-1.518;2023-05-23T15:32:09;10.45;;;4.05;;
24153;SDS011;12312;53.362;-1.518;2023-05-23T15:35:52;10.45;;;3.85;;
24153;SDS011;12312;53.362;-1.518;2023-05-23T15:39:36;11.70;;;3.58;;
24153;SDS011;12312;53.362;-1.518;2023-05-23T15:43:19;15.05;;;3.67;;
24153;SDS011;12312;53.362;-1.518;2023-05-23T15:47:03;12.65;;;3.33;;
24153;SDS011;12312;53.362;-1.518;2023-05-23T15:50:47;11.70;;;3.72;;
24153;SDS011;12312;53.362;-1.518;2023-05-23T15:54:29;12.60;;;3.25;;
24153;SDS011;12312;53.362;-1.518;2023-05-23T15:58:12;11.32;;;3.47;;
24153;SDS011;12312;53.362;-1.518;2023-05-23T16:01:54;9.52;;;3.25;;
24153;SDS011;12312;53.362;-1.518;2023-05-23T16:05:37;13.57;;;4.07;;
24153;SDS011;12312;53.362;-1.518;2023-05-23T16:09:19;12.23;;;3.65;;
24153;SDS011;12312;53.362;-1.518;2023-05-23T16:13:02;8.57;;;3.00;;
24153;SDS011;12312;53.362;-1.518;2023-05-23T16:16:45;8.93;;;2.90;;
24153;SDS011;12312;53.362;-1.518;2023-05-23T16:20:27;11.07;;;3.45;;
24153;SDS011;12312;53.362;-1.518;2023-05-23T16:24:11;14.48;;;3.10;;
24153;SDS011;12312;53.362;-1.518;2023-05-23T16:27:54;9.85;;;3.05;;
24153;SDS011;12312;53.362;-1.518;2023-05-23T16:31:37;11.48;;;2.97;;
24153;SDS011;12312;53.362;-1.518;2023-05-23T16:35:19;11.45;;;3.40;;
24153;SDS011;12312;53.362;-1.518;2023-05-23T16:39:02;9.18;;;3.20;;
24153;SDS011;12312;53.362;-1.518;2023-05-23T16:42:45;12.73;;;3.20;;
24153;SDS011;12312;53.362;-1.518;2023-05-23T16:46:28;14.52;;;3.25;;
24153;SDS011;12312;53.362;-1.518;2023-05-23T16:50:10;9.90;;;3.13;;
24153;SDS011;12312;53.362;-1.518;2023-05-23T16:53:53;12.70;;;3.63;;
24153;SDS011;12312;53.362;-1.518;2023-05-23T16:57:38;8.95;;;2.97;;
24153;SDS011;12312;53.362;-1.518;2023-05-23T17:01:21;8.50;;;2.67;;
24153;SDS011;12312;53.362;-1.518;2023-05-23T17:05:05;10.75;;;2.67;;
24153;SDS011;12312;53.362;-1.518;2023-05-23T17:08:48;8.70;;;2.83;;
24153;SDS011;12312;53.362;-1.518;2023-05-23T17:12:30;10.60;;;3.03;;
24153;SDS011;12312;53.362;-1.518;2023-05-23T17:16:13;8.07;;;2.53;;
24153;SDS011;12312;53.362;-1.518;2023-05-23T17:19:56;7.43;;;2.53;;
24153;SDS011;12312;53.362;-1.518;2023-05-23T17:23:39;11.43;;;2.30;;
24153;SDS011;12312;53.362;-1.518;2023-05-23T17:27:21;10.30;;;2.38;;
24153;SDS011;12312;53.362;-1.518;2023-05-23T17:31:04;8.73;;;2.00;;
24153;SDS011;12312;53.362;-1.518;2023-05-23T17:34:47;9.30;;;2.20;;
24153;SDS011;12312;53.362;-1.518;2023-05-23T17:38:31;7.25;;;2.25;;
24153;SDS011;12312;53.362;-1.518;2023-05-23T17:42:14;10.27;;;2.83;;
24153;SDS011;12312;53.362;-1.518;2023-05-23T17:45:56;8.15;;;2.45;;
24153;SDS011;12312;53.362;-1.518;2023-05-23T17:49:38;7.25;;;2.50;;
24153;SDS011;12312;53.362;-1.518;2023-05-23T17:53:21;11.25;;;3.13;;
24153;SDS011;12312;53.362;-1.518;2023-05-23T17:57:03;11.25;;;2.92;;
24153;SDS011;12312;53.362;-1.518;2023-05-23T18:00:45;9.90;;;2.38;;
24153;SDS011;12312;53.362;-1.518;2023-05-23T18:04:28;8.25;;;2.35;;
24153;SDS011;12312;53.362;-1.518;2023-05-23T18:08:11;8.10;;;2.45;;
24153;SDS011;12312;53.362;-1.518;2023-05-23T18:11:54;10.38;;;2.75;;
24153;SDS011;12312;53.362;-1.518;2023-05-23T18:15:36;12.60;;;3.30;;
24153;SDS011;12312;53.362;-1.518;2023-05-23T18:19:19;11.38;;;2.58;;
24153;SDS011;12312;53.362;-1.518;2023-05-23T18:23:02;13.88;;;3.15;;
24153;SDS011;12312;53.362;-1.518;2023-05-23T18:26:46;11.30;;;3.20;;
24153;SDS011;12312;53.362;-1.518;2023-05-23T18:30:29;10.65;;;2.97;;
24153;SDS011;12312;53.362;-1.518;2023-05-23T18:34:12;15.30;;;3.33;;
24153;SDS011;12312;53.362;-1.518;2023-05-23T18:37:54;20.45;;;3.95;;
24153;SDS011;12312;53.362;-1.518;2023-05-23T18:41:37;12.02;;;3.40;;
24153;SDS011;12312;53.362;-1.518;2023-05-23T18:45:20;15.75;;;3.97;;
24153;SDS011;12312;53.362;-1.518;2023-05-23T18:49:03;17.77;;;4.05;;
24153;SDS011;12312;53.362;-1.518;2023-05-23T18:52:46;17.95;;;4.50;;
24153;SDS011;12312;53.362;-1.518;2023-05-23T18:56:29;40.63;;;13.13;;
24153;SDS011;12312;53.362;-1.518;2023-05-23T19:00:12;21.60;;;6.75;;
24153;SDS011;12312;53.362;-1.518;2023-05-23T19:03:55;30.10;;;8.25;;
24153;SDS011;12312;53.362;-1.518;2023-05-23T19:07:37;32.30;;;10.25;;
24153;SDS011;12312;53.362;-1.518;2023-05-23T19:11:20;87.93;;;28.95;;
24153;SDS011;12312;53.362;-1.518;2023-05-23T19:15:04;35.55;;;14.00;;
24153;SDS011;12312;53.362;-1.518;2023-05-23T19:18:47;15.43;;;5.07;;
24153;SDS011;12312;53.362;-1.518;2023-05-23T19:22:30;18.15;;;4.28;;
24153;SDS011;12312;53.362;-1.518;2023-05-23T19:26:12;15.38;;;4.03;;
24153;SDS011;12312;53.362;-1.518;2023-05-23T19:29:56;23.48;;;4.50;;
24153;SDS011;12312;53.362;-1.518;2023-05-23T19:33:39;17.15;;;3.60;;
24153;SDS011;12312;53.362;-1.518;2023-05-23T19:37:23;10.85;;;3.45;;
24153;SDS011;12312;53.362;-1.518;2023-05-23T19:41:05;13.60;;;3.80;;
24153;SDS011;12312;53.362;-1.518;2023-05-23T19:44:48;10.93;;;4.10;;
24153;SDS011;12312;53.362;-1.518;2023-05-23T19:48:31;14.75;;;3.83;;
24153;SDS011;12312;53.362;-1.518;2023-05-23T19:52:14;15.80;;;3.97;;
24153;SDS011;12312;53.362;-1.518;2023-05-23T19:55:57;17.85;;;4.07;;
24153;SDS011;12312;53.362;-1.518;2023-05-23T19:59:40;19.38;;;4.05;;
24153;SDS011;12312;53.362;-1.518;2023-05-23T20:03:22;17.65;;;4.03;;
24153;SDS011;12312;53.362;-1.518;2023-05-23T20:07:07;23.67;;;4.10;;
24153;SDS011;12312;53.362;-1.518;2023-05-23T20:10:50;14.05;;;3.38;;
24153;SDS011;12312;53.362;-1.518;2023-05-23T20:14:33;15.40;;;3.70;;
24153;SDS011;12312;53.362;-1.518;2023-05-23T20:18:15;11.70;;;3.65;;
24153;SDS011;12312;53.362;-1.518;2023-05-23T20:21:58;10.95;;;3.45;;
24153;SDS011;12312;53.362;-1.518;2023-05-23T20:25:41;18.27;;;3.85;;
24153;SDS011;12312;53.362;-1.518;2023-05-23T20:29:24;14.30;;;3.78;;
24153;SDS011;12312;53.362;-1.518;2023-05-23T20:33:07;16.60;;;3.55;;
24153;SDS011;12312;53.362;-1.518;2023-05-23T20:36:50;16.40;;;4.50;;
24153;SDS011;12312;53.362;-1.518;2023-05-23T20:40:34;16.75;;;3.67;;
24153;SDS011;12312;53.362;-1.518;2023-05-23T20:44:17;16.17;;;4.15;;
24153;SDS011;12312;53.362;-1.518;2023-05-23T20:48:00;20.95;;;4.72;;
24153;SDS011;12312;53.362;-1.518;2023-05-23T20:51:43;20.27;;;5.72;;
24153;SDS011;12312;53.362;-1.518;2023-05-23T20:55:26;15.00;;;4.30;;
24153;SDS011;12312;53.362;-1.518;2023-05-23T20:59:10;16.90;;;5.00;;
24153;SDS011;12312;53.362;-1.518;2023-05-23T21:02:54;19.65;;;4.15;;
24153;SDS011;12312;53.362;-1.518;2023-05-23T21:06:36;20.52;;;4.57;;
24153;SDS011;12312;53.362;-1.518;2023-05-23T21:10:19;15.50;;;4.30;;
24153;SDS011;12312;53.362;-1.518;2023-05-23T21:14:02;16.10;;;4.53;;
24153;SDS011;12312;53.362;-1.518;2023-05-23T21:17:45;13.98;;;4.00;;
24153;SDS011;12312;53.362;-1.518;2023-05-23T21:21:27;20.95;;;4.85;;
24153;SDS011;12312;53.362;-1.518;2023-05-23T21:25:10;18.38;;;4.15;;
24153;SDS011;12312;53.362;-1.518;2023-05-23T21:28:52;14.18;;;3.97;;
24153;SDS011;12312;53.362;-1.518;2023-05-23T21:32:35;18.15;;;4.45;;
24153;SDS011;12312;53.362;-1.518;2023-05-23T21:36:18;17.42;;;4.50;;
24153;SDS011;12312;53.362;-1.518;2023-05-23T21:40:01;17.90;;;4.13;;
24153;SDS011;12312;53.362;-1.518;2023-05-23T21:43:43;15.85;;;4.80;;
24153;SDS011;12312;53.362;-1.518;2023-05-23T21:47:26;15.43;;;3.83;;
24153;SDS011;12312;53.362;-1.518;2023-05-23T21:51:10;14.23;;;4.07;;
24153;SDS011;12312;53.362;-1.518;2023-05-23T21:54:52;21.15;;;5.13;;
24153;SDS011;12312;53.362;-1.518;2023-05-23T21:58:35;16.92;;;4.40;;
24153;SDS011;12312;53.362;-1.518;2023-05-23T22:02:18;17.13;;;4.45;;
24153;SDS011;12312;53.362;-1.518;2023-05-23T22:06:00;17.00;;;4.93;;
24153;SDS011;12312;53.362;-1.518;2023-05-23T22:09:43;17.05;;;4.43;;
24153;SDS011;12312;53.362;-1.518;2023-05-23T22:13:26;17.63;;;5.10;;